Terminal Aerodrome Forecast
Issued by NWS Charleston, WV

Current Version | Previous Version | Graphics & Text | Print | Product List | Glossary On
Versions: 1 2 3 4 5 6 7 8 9 10 11 12 13 14 15 16 17 18 19 20 21 22 23 24 25 26 27 28 29
521
FTUS41 KRLX 220303 AAA
TAFBKW
TAF AMD
KBKW 220303Z 2203/2224 10003KT P6SM BKN040
     FM220400 12003KT P6SM OVC080
     FM221100 13007KT P6SM OVC005
     FM221400 13010KT P6SM OVC005
     FM221500 13010KT P6SM -RA OVC005
     FM221600 13011G17KT P6SM -RA OVC008
     FM221800 13010KT P6SM OVC012
     FM222200 13009KT P6SM BKN250=

USA.gov is the U.S. government's official web portal to all federal, state and local government web resources and services.